sensor_id;sensor_type;location;lat;lon;timestamp;temperature;humidity
4584;DHT22;2304;47.606;12.186;2022-11-15T00:03:50;7.50;69.30
4584;DHT22;2304;47.606;12.186;2022-11-15T00:08:52;7.40;69.20
4584;DHT22;2304;47.606;12.186;2022-11-15T00:13:55;7.30;69.30
4584;DHT22;2304;47.606;12.186;2022-11-15T00:18:58;7.30;68.60
4584;DHT22;2304;47.606;12.186;2022-11-15T00:24:00;7.40;68.10
4584;DHT22;2304;47.606;12.186;2022-11-15T00:29:02;7.30;67.70
4584;DHT22;2304;47.606;12.186;2022-11-15T00:34:05;7.30;68.10
4584;DHT22;2304;47.606;12.186;2022-11-15T00:39:07;7.30;67.40
4584;DHT22;2304;47.606;12.186;2022-11-15T00:44:09;7.20;68.00
4584;DHT22;2304;47.606;12.186;2022-11-15T00:49:12;7.10;69.00
4584;DHT22;2304;47.606;12.186;2022-11-15T00:54:14;7.10;69.50
4584;DHT22;2304;47.606;12.186;2022-11-15T00:59:16;7.10;69.90
4584;DHT22;2304;47.606;12.186;2022-11-15T01:04:19;7.10;69.70
4584;DHT22;2304;47.606;12.186;2022-11-15T01:09:21;7.00;69.30
4584;DHT22;2304;47.606;12.186;2022-11-15T01:14:23;7.00;68.70
4584;DHT22;2304;47.606;12.186;2022-11-15T01:19:26;7.00;68.80
4584;DHT22;2304;47.606;12.186;2022-11-15T01:24:28;7.00;69.00
4584;DHT22;2304;47.606;12.186;2022-11-15T01:29:30;7.00;68.90
4584;DHT22;2304;47.606;12.186;2022-11-15T01:34:33;7.00;68.40
4584;DHT22;2304;47.606;12.186;2022-11-15T01:39:35;6.90;68.10
4584;DHT22;2304;47.606;12.186;2022-11-15T01:44:43;6.90;68.90
4584;DHT22;2304;47.606;12.186;2022-11-15T01:49:53;6.80;68.90
4584;DHT22;2304;47.606;12.186;2022-11-15T01:55:02;6.80;68.90
4584;DHT22;2304;47.606;12.186;2022-11-15T02:00:06;6.70;68.70
4584;DHT22;2304;47.606;12.186;2022-11-15T02:05:10;6.70;68.40
4584;DHT22;2304;47.606;12.186;2022-11-15T02:10:16;6.70;68.10
4584;DHT22;2304;47.606;12.186;2022-11-15T02:15:20;6.70;69.10
4584;DHT22;2304;47.606;12.186;2022-11-15T02:20:43;6.70;70.20
4584;DHT22;2304;47.606;12.186;2022-11-15T02:25:57;6.70;69.70
4584;DHT22;2304;47.606;12.186;2022-11-15T02:31:10;6.70;69.90
4584;DHT22;2304;47.606;12.186;2022-11-15T02:36:20;6.60;69.80
4584;DHT22;2304;47.606;12.186;2022-11-15T02:41:27;6.60;69.40
4584;DHT22;2304;47.606;12.186;2022-11-15T02:46:36;6.60;68.70
4584;DHT22;2304;47.606;12.186;2022-11-15T02:52:15;6.60;68.50
4584;DHT22;2304;47.606;12.186;2022-11-15T02:57:24;6.60;68.60
4584;DHT22;2304;47.606;12.186;2022-11-15T03:02:55;6.60;69.10
4584;DHT22;2304;47.606;12.186;2022-11-15T03:08:04;6.50;69.10
4584;DHT22;2304;47.606;12.186;2022-11-15T03:13:16;6.40;69.20
4584;DHT22;2304;47.606;12.186;2022-11-15T03:18:26;6.40;69.60
4584;DHT22;2304;47.606;12.186;2022-11-15T03:23:30;6.40;69.60
4584;DHT22;2304;47.606;12.186;2022-11-15T03:28:35;6.40;69.20
4584;DHT22;2304;47.606;12.186;2022-11-15T03:33:39;6.40;69.00
4584;DHT22;2304;47.606;12.186;2022-11-15T03:38:43;6.30;68.90
4584;DHT22;2304;47.606;12.186;2022-11-15T03:43:49;6.20;69.30
4584;DHT22;2304;47.606;12.186;2022-11-15T03:49:01;6.30;69.80
4584;DHT22;2304;47.606;12.186;2022-11-15T03:54:06;6.20;70.40
4584;DHT22;2304;47.606;12.186;2022-11-15T03:59:07;6.10;69.90
4584;DHT22;2304;47.606;12.186;2022-11-15T04:04:11;6.00;70.30
4584;DHT22;2304;47.606;12.186;2022-11-15T04:09:12;6.00;70.30
4584;DHT22;2304;47.606;12.186;2022-11-15T04:14:14;5.80;70.60
4584;DHT22;2304;47.606;12.186;2022-11-15T04:19:17;5.90;71.00
4584;DHT22;2304;47.606;12.186;2022-11-15T04:24:37;6.00;71.00
4584;DHT22;2304;47.606;12.186;2022-11-15T04:29:39;6.00;70.50
4584;DHT22;2304;47.606;12.186;2022-11-15T04:34:42;6.00;70.40
4584;DHT22;2304;47.606;12.186;2022-11-15T04:39:44;6.00;70.20
4584;DHT22;2304;47.606;12.186;2022-11-15T04:44:45;6.00;69.90
4584;DHT22;2304;47.606;12.186;2022-11-15T04:49:49;6.00;69.70
4584;DHT22;2304;47.606;12.186;2022-11-15T04:54:50;5.90;69.70
4584;DHT22;2304;47.606;12.186;2022-11-15T04:59:53;6.00;70.00
4584;DHT22;2304;47.606;12.186;2022-11-15T05:04:57;6.00;70.20
4584;DHT22;2304;47.606;12.186;2022-11-15T05:09:58;5.90;70.10
4584;DHT22;2304;47.606;12.186;2022-11-15T05:15:00;6.10;70.50
4584;DHT22;2304;47.606;12.186;2022-11-15T05:20:04;5.80;70.30
4584;DHT22;2304;47.606;12.186;2022-11-15T05:25:07;5.70;70.40
4584;DHT22;2304;47.606;12.186;2022-11-15T05:30:10;5.80;70.80
4584;DHT22;2304;47.606;12.186;2022-11-15T05:35:17;5.80;70.40
4584;DHT22;2304;47.606;12.186;2022-11-15T05:40:20;5.70;70.40
4584;DHT22;2304;47.606;12.186;2022-11-15T05:45:22;5.60;71.20
4584;DHT22;2304;47.606;12.186;2022-11-15T05:50:26;5.60;71.60
4584;DHT22;2304;47.606;12.186;2022-11-15T05:55:28;5.40;71.60
4584;DHT22;2304;47.606;12.186;2022-11-15T06:00:30;5.40;72.00
4584;DHT22;2304;47.606;12.186;2022-11-15T06:05:33;5.50;71.60
4584;DHT22;2304;47.606;12.186;2022-11-15T06:10:35;5.50;71.70
4584;DHT22;2304;47.606;12.186;2022-11-15T06:15:37;5.50;71.70
4584;DHT22;2304;47.606;12.186;2022-11-15T06:20:40;5.50;71.60
4584;DHT22;2304;47.606;12.186;2022-11-15T06:25:42;5.50;71.50
4584;DHT22;2304;47.606;12.186;2022-11-15T06:30:44;5.60;71.00
4584;DHT22;2304;47.606;12.186;2022-11-15T06:35:47;5.60;70.40
4584;DHT22;2304;47.606;12.186;2022-11-15T06:40:49;5.50;71.10
4584;DHT22;2304;47.606;12.186;2022-11-15T06:45:51;5.50;71.60
4584;DHT22;2304;47.606;12.186;2022-11-15T06:50:55;5.50;71.90
4584;DHT22;2304;47.606;12.186;2022-11-15T06:55:59;5.90;71.30
4584;DHT22;2304;47.606;12.186;2022-11-15T07:01:04;5.60;70.60
4584;DHT22;2304;47.606;12.186;2022-11-15T07:06:08;5.80;70.60
4584;DHT22;2304;47.606;12.186;2022-11-15T07:11:10;5.60;70.50
4584;DHT22;2304;47.606;12.186;2022-11-15T07:16:12;5.60;70.50
4584;DHT22;2304;47.606;12.186;2022-11-15T07:21:16;5.60;70.30
4584;DHT22;2304;47.606;12.186;2022-11-15T07:26:17;5.50;70.90
4584;DHT22;2304;47.606;12.186;2022-11-15T07:31:19;5.50;71.40
4584;DHT22;2304;47.606;12.186;2022-11-15T07:36:22;5.40;71.20
4584;DHT22;2304;47.606;12.186;2022-11-15T07:41:25;5.40;71.40
4584;DHT22;2304;47.606;12.186;2022-11-15T07:46:26;5.40;71.70
4584;DHT22;2304;47.606;12.186;2022-11-15T07:51:30;5.40;71.90
4584;DHT22;2304;47.606;12.186;2022-11-15T07:56:32;5.40;71.80
4584;DHT22;2304;47.606;12.186;2022-11-15T08:01:33;5.40;71.30
4584;DHT22;2304;47.606;12.186;2022-11-15T08:06:38;5.60;71.80
4584;DHT22;2304;47.606;12.186;2022-11-15T08:11:39;6.00;70.70
4584;DHT22;2304;47.606;12.186;2022-11-15T08:16:42;6.40;69.70
4584;DHT22;2304;47.606;12.186;2022-11-15T08:21:46;6.80;68.30
4584;DHT22;2304;47.606;12.186;2022-11-15T08:26:48;7.10;66.40
4584;DHT22;2304;47.606;12.186;2022-11-15T08:31:50;7.20;64.80
4584;DHT22;2304;47.606;12.186;2022-11-15T08:36:54;7.40;64.30
4584;DHT22;2304;47.606;12.186;2022-11-15T08:41:56;7.60;64.20
4584;DHT22;2304;47.606;12.186;2022-11-15T08:46:58;7.70;63.60
4584;DHT22;2304;47.606;12.186;2022-11-15T08:52:01;7.90;63.30
4584;DHT22;2304;47.606;12.186;2022-11-15T08:57:03;8.30;64.30
4584;DHT22;2304;47.606;12.186;2022-11-15T09:02:05;8.80;63.30
4584;DHT22;2304;47.606;12.186;2022-11-15T09:07:09;9.20;62.90
4584;DHT22;2304;47.606;12.186;2022-11-15T09:12:11;9.60;61.60
4584;DHT22;2304;47.606;12.186;2022-11-15T09:17:13;9.90;59.00
4584;DHT22;2304;47.606;12.186;2022-11-15T09:22:16;10.20;59.30
4584;DHT22;2304;47.606;12.186;2022-11-15T09:27:18;10.40;58.50
4584;DHT22;2304;47.606;12.186;2022-11-15T09:32:20;10.70;57.70
4584;DHT22;2304;47.606;12.186;2022-11-15T09:37:24;11.00;57.00
4584;DHT22;2304;47.606;12.186;2022-11-15T09:42:47;11.40;56.70
4584;DHT22;2304;47.606;12.186;2022-11-15T09:48:03;11.20;54.70
4584;DHT22;2304;47.606;12.186;2022-11-15T09:53:14;11.10;53.80
4584;DHT22;2304;47.606;12.186;2022-11-15T09:58:21;11.20;53.80
4584;DHT22;2304;47.606;12.186;2022-11-15T10:03:29;11.40;53.30
4584;DHT22;2304;47.606;12.186;2022-11-15T10:08:45;11.60;53.00
4584;DHT22;2304;47.606;12.186;2022-11-15T10:13:50;11.90;51.30
4584;DHT22;2304;47.606;12.186;2022-11-15T10:18:56;12.10;51.30
4584;DHT22;2304;47.606;12.186;2022-11-15T10:24:10;12.40;50.80
4584;DHT22;2304;47.606;12.186;2022-11-15T10:29:18;12.60;49.30
4584;DHT22;2304;47.606;12.186;2022-11-15T10:34:21;12.60;48.50
4584;DHT22;2304;47.606;12.186;2022-11-15T10:39:25;12.70;48.40
4584;DHT22;2304;47.606;12.186;2022-11-15T10:44:29;12.90;49.60
4584;DHT22;2304;47.606;12.186;2022-11-15T10:49:32;13.10;49.60
4584;DHT22;2304;47.606;12.186;2022-11-15T10:54:39;13.60;48.70
4584;DHT22;2304;47.606;12.186;2022-11-15T10:59:44;13.60;47.80
4584;DHT22;2304;47.606;12.186;2022-11-15T11:04:50;14.10;49.00
4584;DHT22;2304;47.606;12.186;2022-11-15T11:09:59;14.20;46.30
4584;DHT22;2304;47.606;12.186;2022-11-15T11:15:10;14.30;45.50
4584;DHT22;2304;47.606;12.186;2022-11-15T11:20:20;14.70;46.60
4584;DHT22;2304;47.606;12.186;2022-11-15T11:25:32;14.90;45.80
4584;DHT22;2304;47.606;12.186;2022-11-15T11:30:43;15.00;45.20
4584;DHT22;2304;47.606;12.186;2022-11-15T11:36:01;15.30;45.10
4584;DHT22;2304;47.606;12.186;2022-11-15T11:41:12;15.40;44.70
4584;DHT22;2304;47.606;12.186;2022-11-15T11:46:27;15.70;44.10
4584;DHT22;2304;47.606;12.186;2022-11-15T11:51:34;15.70;43.70
4584;DHT22;2304;47.606;12.186;2022-11-15T11:56:44;15.70;43.80
4584;DHT22;2304;47.606;12.186;2022-11-15T12:01:46;16.00;45.30
4584;DHT22;2304;47.606;12.186;2022-11-15T12:06:51;16.10;43.60
4584;DHT22;2304;47.606;12.186;2022-11-15T12:12:04;16.20;42.60
4584;DHT22;2304;47.606;12.186;2022-11-15T12:17:09;16.20;42.90
4584;DHT22;2304;47.606;12.186;2022-11-15T12:22:16;16.30;42.80
4584;DHT22;2304;47.606;12.186;2022-11-15T12:27:30;16.50;43.50
4584;DHT22;2304;47.606;12.186;2022-11-15T12:32:35;16.60;43.00
4584;DHT22;2304;47.606;12.186;2022-11-15T12:37:49;16.70;42.20
4584;DHT22;2304;47.606;12.186;2022-11-15T12:43:04;16.70;42.00
4584;DHT22;2304;47.606;12.186;2022-11-15T12:54:49;16.60;43.70
4584;DHT22;2304;47.606;12.186;2022-11-15T12:59:54;16.60;43.20
4584;DHT22;2304;47.606;12.186;2022-11-15T13:05:47;16.70;42.30
4584;DHT22;2304;47.606;12.186;2022-11-15T13:10:41;16.60;42.10
4584;DHT22;2304;47.606;12.186;2022-11-15T13:15:53;16.50;43.60
4584;DHT22;2304;47.606;12.186;2022-11-15T13:20:56;16.40;43.60
4584;DHT22;2304;47.606;12.186;2022-11-15T13:26:10;16.50;43.80
4584;DHT22;2304;47.606;12.186;2022-11-15T13:31:36;16.60;43.20
4584;DHT22;2304;47.606;12.186;2022-11-15T13:36:39;16.60;42.50
4584;DHT22;2304;47.606;12.186;2022-11-15T13:41:47;16.50;42.90
4584;DHT22;2304;47.606;12.186;2022-11-15T13:47:00;16.40;42.20
4584;DHT22;2304;47.606;12.186;2022-11-15T13:52:06;16.30;43.80
4584;DHT22;2304;47.606;12.186;2022-11-15T13:57:11;16.20;44.60
4584;DHT22;2304;47.606;12.186;2022-11-15T14:02:17;16.20;44.80
4584;DHT22;2304;47.606;12.186;2022-11-15T14:07:21;16.20;45.00
4584;DHT22;2304;47.606;12.186;2022-11-15T14:12:27;15.90;44.10
4584;DHT22;2304;47.606;12.186;2022-11-15T14:17:38;15.80;45.10
4584;DHT22;2304;47.606;12.186;2022-11-15T14:22:51;15.80;46.30
4584;DHT22;2304;47.606;12.186;2022-11-15T14:28:16;15.70;47.80
4584;DHT22;2304;47.606;12.186;2022-11-15T14:33:33;15.50;47.00
4584;DHT22;2304;47.606;12.186;2022-11-15T14:38:35;15.30;47.20
4584;DHT22;2304;47.606;12.186;2022-11-15T14:43:37;15.10;48.00
4584;DHT22;2304;47.606;12.186;2022-11-15T14:48:40;14.90;47.60
4584;DHT22;2304;47.606;12.186;2022-11-15T14:53:43;14.70;47.90
4584;DHT22;2304;47.606;12.186;2022-11-15T14:58:45;14.60;48.40
4584;DHT22;2304;47.606;12.186;2022-11-15T15:03:49;14.40;48.20
4584;DHT22;2304;47.606;12.186;2022-11-15T15:08:52;14.30;48.80
4584;DHT22;2304;47.606;12.186;2022-11-15T15:13:54;14.30;48.90
4584;DHT22;2304;47.606;12.186;2022-11-15T15:19:00;13.90;49.00
4584;DHT22;2304;47.606;12.186;2022-11-15T15:24:01;13.70;49.20
4584;DHT22;2304;47.606;12.186;2022-11-15T15:29:03;13.70;50.20
4584;DHT22;2304;47.606;12.186;2022-11-15T15:34:06;13.60;50.70
4584;DHT22;2304;47.606;12.186;2022-11-15T15:39:09;13.70;51.80
4584;DHT22;2304;47.606;12.186;2022-11-15T15:44:11;13.40;51.50
4584;DHT22;2304;47.606;12.186;2022-11-15T15:49:14;13.30;51.30
4584;DHT22;2304;47.606;12.186;2022-11-15T15:54:16;13.20;52.00
4584;DHT22;2304;47.606;12.186;2022-11-15T15:59:18;13.10;52.60
4584;DHT22;2304;47.606;12.186;2022-11-15T16:04:21;13.00;52.60
4584;DHT22;2304;47.606;12.186;2022-11-15T16:09:23;13.00;53.50
4584;DHT22;2304;47.606;12.186;2022-11-15T16:14:45;12.90;54.00
4584;DHT22;2304;47.606;12.186;2022-11-15T16:19:48;12.80;54.90
4584;DHT22;2304;47.606;12.186;2022-11-15T16:24:50;12.70;55.30
4584;DHT22;2304;47.606;12.186;2022-11-15T16:29:52;12.70;55.70
4584;DHT22;2304;47.606;12.186;2022-11-15T16:34:55;12.50;56.00
4584;DHT22;2304;47.606;12.186;2022-11-15T16:39:59;12.30;56.40
4584;DHT22;2304;47.606;12.186;2022-11-15T16:45:01;12.20;56.60
4584;DHT22;2304;47.606;12.186;2022-11-15T16:50:05;12.00;57.10
4584;DHT22;2304;47.606;12.186;2022-11-15T16:55:08;11.90;57.40
4584;DHT22;2304;47.606;12.186;2022-11-15T17:00:12;11.80;57.60
4584;DHT22;2304;47.606;12.186;2022-11-15T17:05:18;11.70;57.60
4584;DHT22;2304;47.606;12.186;2022-11-15T17:10:21;11.60;57.90
4584;DHT22;2304;47.606;12.186;2022-11-15T17:15:23;11.60;58.10
4584;DHT22;2304;47.606;12.186;2022-11-15T17:20:27;11.40;59.20
4584;DHT22;2304;47.606;12.186;2022-11-15T17:25:29;11.30;59.30
4584;DHT22;2304;47.606;12.186;2022-11-15T17:30:30;11.30;59.50
4584;DHT22;2304;47.606;12.186;2022-11-15T17:35:33;11.20;59.40
4584;DHT22;2304;47.606;12.186;2022-11-15T17:40:35;11.20;59.40
4584;DHT22;2304;47.606;12.186;2022-11-15T17:45:39;11.10;59.70
4584;DHT22;2304;47.606;12.186;2022-11-15T17:50:43;11.10;60.20
4584;DHT22;2304;47.606;12.186;2022-11-15T17:55:45;11.00;61.10
4584;DHT22;2304;47.606;12.186;2022-11-15T18:00:47;10.80;61.20
4584;DHT22;2304;47.606;12.186;2022-11-15T18:05:51;10.90;61.70
4584;DHT22;2304;47.606;12.186;2022-11-15T18:11:01;10.80;61.80
4584;DHT22;2304;47.606;12.186;2022-11-15T18:16:04;10.70;61.70
4584;DHT22;2304;47.606;12.186;2022-11-15T18:21:09;10.70;61.90
4584;DHT22;2304;47.606;12.186;2022-11-15T18:26:13;10.60;63.30
4584;DHT22;2304;47.606;12.186;2022-11-15T18:31:17;10.60;62.80
4584;DHT22;2304;47.606;12.186;2022-11-15T18:36:23;10.60;62.80
4584;DHT22;2304;47.606;12.186;2022-11-15T18:41:26;10.50;62.00
4584;DHT22;2304;47.606;12.186;2022-11-15T18:46:30;10.50;62.10
4584;DHT22;2304;47.606;12.186;2022-11-15T18:51:35;10.60;61.80
4584;DHT22;2304;47.606;12.186;2022-11-15T18:56:37;10.40;61.90
4584;DHT22;2304;47.606;12.186;2022-11-15T19:01:41;10.40;62.30
4584;DHT22;2304;47.606;12.186;2022-11-15T19:06:45;10.30;62.30
4584;DHT22;2304;47.606;12.186;2022-11-15T19:11:48;10.40;62.40
4584;DHT22;2304;47.606;12.186;2022-11-15T19:16:51;10.30;62.70
4584;DHT22;2304;47.606;12.186;2022-11-15T19:21:55;10.30;63.10
4584;DHT22;2304;47.606;12.186;2022-11-15T19:26:57;10.20;63.80
4584;DHT22;2304;47.606;12.186;2022-11-15T19:31:59;10.20;64.30
4584;DHT22;2304;47.606;12.186;2022-11-15T19:37:04;10.10;63.70
4584;DHT22;2304;47.606;12.186;2022-11-15T19:42:06;10.10;63.60
4584;DHT22;2304;47.606;12.186;2022-11-15T19:47:07;10.10;63.60
4584;DHT22;2304;47.606;12.186;2022-11-15T19:52:11;10.20;64.00
4584;DHT22;2304;47.606;12.186;2022-11-15T19:57:13;10.00;64.80
4584;DHT22;2304;47.606;12.186;2022-11-15T20:02:15;9.90;65.10
4584;DHT22;2304;47.606;12.186;2022-11-15T20:07:19;9.90;64.60
4584;DHT22;2304;47.606;12.186;2022-11-15T20:12:20;9.90;64.60
4584;DHT22;2304;47.606;12.186;2022-11-15T20:17:22;9.80;64.60
4584;DHT22;2304;47.606;12.186;2022-11-15T20:22:26;9.90;65.00
4584;DHT22;2304;47.606;12.186;2022-11-15T20:27:28;9.70;66.10
4584;DHT22;2304;47.606;12.186;2022-11-15T20:32:30;9.60;66.00
4584;DHT22;2304;47.606;12.186;2022-11-15T20:37:34;9.60;66.20
4584;DHT22;2304;47.606;12.186;2022-11-15T20:42:36;9.50;65.80
4584;DHT22;2304;47.606;12.186;2022-11-15T20:47:38;9.60;66.00
4584;DHT22;2304;47.606;12.186;2022-11-15T20:52:41;9.40;66.20
4584;DHT22;2304;47.606;12.186;2022-11-15T20:57:43;9.40;66.50
4584;DHT22;2304;47.606;12.186;2022-11-15T21:02:45;9.30;66.90
4584;DHT22;2304;47.606;12.186;2022-11-15T21:07:48;9.30;67.00
4584;DHT22;2304;47.606;12.186;2022-11-15T21:12:50;9.50;67.00
4584;DHT22;2304;47.606;12.186;2022-11-15T21:17:52;9.20;66.80
4584;DHT22;2304;47.606;12.186;2022-11-15T21:22:55;9.30;67.20
4584;DHT22;2304;47.606;12.186;2022-11-15T21:27:57;9.30;67.10
4584;DHT22;2304;47.606;12.186;2022-11-15T21:32:59;9.20;67.60
4584;DHT22;2304;47.606;12.186;2022-11-15T21:38:02;9.30;66.90
4584;DHT22;2304;47.606;12.186;2022-11-15T21:43:04;9.40;67.10
4584;DHT22;2304;47.606;12.186;2022-11-15T21:48:06;9.30;67.00
4584;DHT22;2304;47.606;12.186;2022-11-15T21:53:09;9.20;67.00
4584;DHT22;2304;47.606;12.186;2022-11-15T21:58:11;9.30;67.20
4584;DHT22;2304;47.606;12.186;2022-11-15T22:03:13;9.20;67.80
4584;DHT22;2304;47.606;12.186;2022-11-15T22:08:16;9.40;67.60
4584;DHT22;2304;47.606;12.186;2022-11-15T22:13:19;9.30;67.00
4584;DHT22;2304;47.606;12.186;2022-11-15T22:18:21;9.30;66.80
4584;DHT22;2304;47.606;12.186;2022-11-15T22:23:26;9.20;67.10
4584;DHT22;2304;47.606;12.186;2022-11-15T22:28:28;9.20;68.10
4584;DHT22;2304;47.606;12.186;2022-11-15T22:33:32;9.30;67.80
4584;DHT22;2304;47.606;12.186;2022-11-15T22:38:35;9.00;67.80
4584;DHT22;2304;47.606;12.186;2022-11-15T22:43:37;9.00;67.90
4584;DHT22;2304;47.606;12.186;2022-11-15T22:48:39;9.00;68.30
4584;DHT22;2304;47.606;12.186;2022-11-15T22:53:43;9.00;68.10
4584;DHT22;2304;47.606;12.186;2022-11-15T22:58:44;8.90;68.40
4584;DHT22;2304;47.606;12.186;2022-11-15T23:03:46;9.00;68.70
4584;DHT22;2304;47.606;12.186;2022-11-15T23:08:50;9.10;69.30
4584;DHT22;2304;47.606;12.186;2022-11-15T23:13:52;8.80;68.80
4584;DHT22;2304;47.606;12.186;2022-11-15T23:18:56;8.70;69.20
4584;DHT22;2304;47.606;12.186;2022-11-15T23:23:59;8.60;69.50
4584;DHT22;2304;47.606;12.186;2022-11-15T23:29:02;8.50;69.80
4584;DHT22;2304;47.606;12.186;2022-11-15T23:34:04;8.50;70.50
4584;DHT22;2304;47.606;12.186;2022-11-15T23:39:07;8.50;70.50
4584;DHT22;2304;47.606;12.186;2022-11-15T23:44:09;8.50;70.50
4584;DHT22;2304;47.606;12.186;2022-11-15T23:49:11;8.50;70.10
4584;DHT22;2304;47.606;12.186;2022-11-15T23:54:14;8.50;70.10
4584;DHT22;2304;47.606;12.186;2022-11-15T23:59:16;8.50;69.70
